CheckWX is a tool to help pilots better visualize weather data.  It is not intended as a substitute for an official pre-flight weather briefing.

04:33:26 UTC

KBGM TAF
Greater Binghamton / Edwin A Link Field Airport
Binghamton, New York, USA
KBGM 232340Z 2400/2424 35005KT P6SM FEW080 SCT120 BKN200 FM240400 VRB04KT P6SM SCT250 FM241600 34007KT P6SM FEW045 SCT060

Jul-24@
00:00 UTC

Jul-24 @ 00:00 UTC

Jul-24@
04:00 UTC

Jul-24 @ 04:00 UTC

KBGM 232340Z 2400/2424 35005KT P6SM FEW080 SCT120 BKN200

Expired

Wind
  • 350° at 5 KTS
Cloud Levels
  • Few at 8,000' AGL
  • Scattered at 12,000' AGL
  • Broken at 20,000' AGL

Jul-24@
04:00 UTC

Jul-24 @ 04:00 UTC

Jul-24@
16:00 UTC

Jul-24 @ 16:00 UTC

FM240400 VRB04KT P6SM SCT250

From

From Standard forecast or significant change

Wind
  • Variable at 4 KTS
Cloud Levels
  • Scattered at 25,000' AGL

Jul-24@
16:00 UTC

Jul-24 @ 16:00 UTC

Jul-25@
00:00 UTC

Jul-25 @ 00:00 UTC

FM241600 34007KT P6SM FEW045 SCT060

From

From Standard forecast or significant change

Wind
  • 340° at 7 KTS
Cloud Levels
  • Few at 4,500' AGL
  • Scattered at 6,000' AGL